createdAt,value
2022-12-16T00:01:28.860Z,100490.56
2022-12-16T00:04:01.638Z,100492.66
2022-12-16T00:06:34.156Z,100501.75
2022-12-16T00:09:04.713Z,100503.66
2022-12-16T00:11:34.395Z,100505.88
2022-12-16T00:14:04.210Z,100484.88
2022-12-16T00:16:33.951Z,100502.84
2022-12-16T00:19:06.406Z,100441.84
2022-12-16T00:21:36.627Z,100483.53
2022-12-16T00:24:06.842Z,100494.84
2022-12-16T00:26:36.550Z,100493.00
2022-12-16T00:29:07.083Z,100487.44
2022-12-16T00:31:36.842Z,100496.78
2022-12-16T00:34:09.610Z,100474.59
2022-12-16T00:36:39.326Z,100506.16
2022-12-16T00:39:09.247Z,100508.25
2022-12-16T00:41:39.445Z,100513.22
2022-12-16T00:44:09.239Z,100494.03
2022-12-16T00:46:38.903Z,100505.53
2022-12-16T00:49:11.240Z,100473.31
2022-12-16T00:51:40.959Z,100497.41
2022-12-16T00:54:10.656Z,100506.50
2022-12-16T00:56:40.387Z,100482.13
2022-12-16T00:59:10.081Z,100502.72
2022-12-16T01:01:39.856Z,100504.84
2022-12-16T01:04:12.335Z,100498.41
2022-12-16T01:06:42.074Z,100498.22
2022-12-16T01:09:11.894Z,100503.59
2022-12-16T01:11:41.615Z,100510.28
2022-12-16T01:14:11.328Z,100498.50
2022-12-16T01:16:41.135Z,100511.78
2022-12-16T01:19:13.772Z,100512.59
2022-12-16T01:21:43.502Z,100520.47
2022-12-16T01:24:13.491Z,100524.28
2022-12-16T01:26:43.178Z,100522.69
2022-12-16T01:29:12.826Z,100524.91
2022-12-16T01:31:42.631Z,100525.78
2022-12-16T01:34:14.926Z,100522.69
2022-12-16T01:36:44.636Z,100533.13
2022-12-16T01:39:14.360Z,100527.53
2022-12-16T01:41:44.082Z,100533.13
2022-12-16T01:44:17.721Z,100532.97
2022-12-16T01:46:52.113Z,100524.81
2022-12-16T01:49:29.047Z,100532.19
2022-12-16T01:52:04.276Z,100528.44
2022-12-16T01:54:39.722Z,100481.66
2022-12-16T01:57:12.958Z,100529.31
2022-12-16T01:59:46.257Z,100525.22
2022-12-16T02:02:18.177Z,100536.91
2022-12-16T02:05:03.538Z,100540.97
2022-12-16T02:07:33.227Z,100533.66
2022-12-16T02:10:04.515Z,100544.97
2022-12-16T02:12:44.721Z,100552.19
2022-12-16T02:15:31.202Z,100538.09
2022-12-16T02:18:08.461Z,100536.00
2022-12-16T02:21:18.204Z,100542.84
2022-12-16T02:24:20.312Z,100545.94
2022-12-16T02:27:21.024Z,100545.19
2022-12-16T02:30:11.245Z,100543.59
2022-12-16T02:32:55.337Z,100512.94
2022-12-16T02:35:32.601Z,100543.44
2022-12-16T02:38:15.253Z,100547.91
2022-12-16T02:40:48.797Z,100552.72
2022-12-16T02:43:25.242Z,100554.22
2022-12-16T02:45:55.736Z,100558.22
2022-12-16T02:48:28.073Z,100551.97
2022-12-16T02:50:57.761Z,100544.16
2022-12-16T02:53:27.458Z,100552.97
2022-12-16T02:56:07.734Z,100543.03
2022-12-16T02:58:41.976Z,100527.88
2022-12-16T03:01:20.385Z,100554.19
2022-12-16T03:04:05.921Z,100528.59
2022-12-16T03:06:38.919Z,100554.69
2022-12-16T03:09:13.904Z,100548.72
2022-12-16T03:11:46.717Z,100547.97
2022-12-16T03:14:20.809Z,100557.53
2022-12-16T03:16:52.277Z,100551.81
2022-12-16T03:19:27.267Z,100541.31
2022-12-16T03:22:02.738Z,100546.25
2022-12-16T03:24:32.926Z,100553.84
2022-12-16T03:27:11.333Z,100544.19
2022-12-16T03:29:47.607Z,100565.53
2022-12-16T03:32:24.089Z,100571.13
2022-12-16T03:35:02.041Z,100565.19
2022-12-16T03:37:37.288Z,100559.84
2022-12-16T03:40:12.750Z,100547.41
2022-12-16T03:42:43.663Z,100552.75
2022-12-16T03:45:18.460Z,100566.41
2022-12-16T03:47:52.206Z,100565.03
2022-12-16T03:50:28.174Z,100561.31
2022-12-16T03:52:58.018Z,100538.22
2022-12-16T03:55:27.941Z,100567.16
2022-12-16T03:57:57.712Z,100521.19
2022-12-16T04:00:28.268Z,100576.13
2022-12-16T04:02:58.210Z,100579.72
2022-12-16T04:05:30.670Z,100577.34
2022-12-16T04:08:02.241Z,100571.75
2022-12-16T04:10:44.719Z,100575.13
2022-12-16T04:13:26.872Z,100581.34
2022-12-16T04:16:09.318Z,100577.59
2022-12-16T04:18:51.882Z,100577.97
2022-12-16T04:21:36.670Z,100580.59
2022-12-16T04:24:24.063Z,100573.75
2022-12-16T04:27:11.807Z,100588.53
2022-12-16T04:29:56.963Z,100591.50
2022-12-16T04:32:27.000Z,100564.53
2022-12-16T04:34:54.057Z,100594.38
2022-12-16T04:37:38.797Z,100591.28
2022-12-16T04:40:22.291Z,100593.41
2022-12-16T04:43:04.378Z,100600.72
2022-12-16T04:45:46.520Z,100603.81
2022-12-16T04:48:28.640Z,100605.53
2022-12-16T04:51:10.765Z,100598.34
2022-12-16T04:53:55.493Z,100611.03
2022-12-16T04:56:37.610Z,100613.75
2022-12-16T04:59:19.863Z,100616.88
2022-12-16T05:02:02.100Z,100619.09
2022-12-16T05:04:44.351Z,100628.03
2022-12-16T05:07:26.497Z,100625.56
2022-12-16T05:10:11.212Z,100625.56
2022-12-16T05:12:53.366Z,100631.50
2022-12-16T05:15:35.748Z,100618.44
2022-12-16T05:18:23.998Z,100606.00
2022-12-16T05:21:06.130Z,100621.44
2022-12-16T05:23:48.232Z,100627.38
2022-12-16T05:26:32.930Z,100628.38
2022-12-16T05:29:15.049Z,100578.16
2022-12-16T05:31:57.169Z,100629.84
2022-12-16T05:34:39.285Z,100610.53
2022-12-16T05:37:21.438Z,100639.88
2022-12-16T05:40:18.218Z,100624.47
2022-12-16T05:43:03.354Z,100582.00
2022-12-16T05:45:45.518Z,100645.91
2022-12-16T05:48:27.653Z,100652.09
2022-12-16T05:51:09.773Z,100622.56
2022-12-16T05:53:51.880Z,100668.84
2022-12-16T05:56:34.002Z,100656.19
2022-12-16T05:59:18.822Z,100662.66
2022-12-16T06:02:01.092Z,100660.50
2022-12-16T06:04:43.335Z,100670.41
2022-12-16T06:07:25.521Z,100677.47
2022-12-16T06:10:07.653Z,100672.84
2022-12-16T06:12:49.804Z,100678.16
2022-12-16T06:15:34.566Z,100662.16
2022-12-16T06:18:16.733Z,100690.44
2022-12-16T06:20:59.036Z,100665.78
2022-12-16T06:23:41.271Z,100696.22
2022-12-16T06:26:23.555Z,100689.16
2022-12-16T06:29:05.807Z,100697.47
2022-12-16T06:31:50.838Z,100694.22
2022-12-16T06:34:33.012Z,100708.19
2022-12-16T06:37:15.147Z,100713.03
2022-12-16T06:39:57.258Z,100720.31
2022-12-16T06:42:39.395Z,100723.81
2022-12-16T06:45:22.477Z,100721.84
2022-12-16T06:48:07.213Z,100722.56
2022-12-16T06:50:53.741Z,100741.41
2022-12-16T06:53:38.101Z,100738.44
2022-12-16T06:56:20.826Z,100748.84
2022-12-16T06:59:02.947Z,100695.16
2022-12-16T07:01:45.238Z,100753.13
2022-12-16T07:04:30.391Z,100756.81
2022-12-16T07:07:12.621Z,100764.00
2022-12-16T07:09:54.726Z,100773.72
2022-12-16T07:12:36.925Z,100780.16
2022-12-16T07:15:20.063Z,100772.91
2022-12-16T07:18:02.274Z,100784.03
2022-12-16T07:20:50.302Z,100781.28
2022-12-16T07:23:36.893Z,100766.28
2022-12-16T07:26:19.212Z,100805.97
2022-12-16T07:29:01.420Z,100796.13
2022-12-16T07:31:46.865Z,100822.06
2022-12-16T07:34:33.480Z,100824.13
2022-12-16T07:37:25.345Z,100824.13
2022-12-16T07:40:07.509Z,100836.94
2022-12-16T07:42:50.789Z,100835.72
2022-12-16T07:45:45.246Z,100840.69
2022-12-16T07:48:27.646Z,100846.78
2022-12-16T07:51:09.974Z,100866.44
2022-12-16T07:53:58.384Z,100860.75
2022-12-16T07:56:40.610Z,100877.66
2022-12-16T07:59:25.088Z,100877.03
2022-12-16T08:02:14.141Z,100888.16
2022-12-16T08:04:57.447Z,100857.66
2022-12-16T08:07:41.612Z,100889.75
2022-12-16T08:10:27.472Z,100897.41
2022-12-16T08:13:15.100Z,100898.09
2022-12-16T08:15:58.361Z,100904.78
2022-12-16T08:18:43.721Z,100899.63
2022-12-16T08:21:25.902Z,100915.06
2022-12-16T08:24:11.986Z,100901.56
2022-12-16T08:26:56.823Z,100912.69
2022-12-16T08:29:44.616Z,100910.50
2022-12-16T08:32:27.469Z,100916.19
2022-12-16T08:35:10.662Z,100926.81
2022-12-16T08:37:52.903Z,100930.59
2022-12-16T08:43:39.947Z,100942.25
2022-12-16T08:46:24.175Z,100947.88
2022-12-16T08:49:06.251Z,100944.44
2022-12-16T08:51:48.440Z,100938.59
2022-12-16T08:54:30.728Z,100934.75
2022-12-16T08:57:14.948Z,100950.84
2022-12-16T09:00:01.755Z,100938.91
2022-12-16T09:02:44.412Z,100934.78
2022-12-16T09:05:27.765Z,100925.69
2022-12-16T09:08:14.375Z,100917.13
2022-12-16T09:10:56.578Z,100947.66
2022-12-16T09:13:38.734Z,100956.13
2022-12-16T09:16:25.789Z,100946.94
2022-12-16T09:19:08.024Z,100959.41
2022-12-16T09:21:50.024Z,100954.91
2022-12-16T09:24:32.180Z,100896.09
2022-12-16T09:27:16.366Z,100954.53
2022-12-16T09:29:59.685Z,100964.38
2022-12-16T09:32:44.599Z,100967.84
2022-12-16T09:35:32.059Z,100971.97
2022-12-16T09:38:14.323Z,100957.28
2022-12-16T09:40:58.104Z,100973.31
2022-12-16T09:44:03.813Z,100970.81
2022-12-16T09:46:55.978Z,100979.44
2022-12-16T09:49:56.380Z,100939.94
2022-12-16T09:52:43.109Z,100974.41
2022-12-16T09:55:36.872Z,100977.03
2022-12-16T09:58:19.362Z,100981.13
2022-12-16T10:01:02.140Z,100970.81
2022-12-16T10:03:53.407Z,100956.19
2022-12-16T10:06:49.497Z,100986.47
2022-12-16T10:09:40.173Z,100978.47
2022-12-16T10:12:29.684Z,100960.25
2022-12-16T10:15:15.898Z,100934.59
2022-12-16T10:18:01.859Z,100990.81
2022-12-16T10:20:53.711Z,100980.28
2022-12-16T10:23:48.929Z,100926.47
2022-12-16T10:26:42.798Z,100990.72
2022-12-16T10:29:33.398Z,100989.19
2022-12-16T10:32:15.592Z,100981.25
2022-12-16T10:35:01.765Z,100986.66
2022-12-16T10:38:03.412Z,100987.97
2022-12-16T10:40:50.106Z,100978.03
2022-12-16T10:43:38.509Z,100990.47
2022-12-16T10:46:31.740Z,100975.38
2022-12-16T10:49:14.063Z,100999.34
2022-12-16T10:51:56.355Z,100992.25
2022-12-16T10:54:47.199Z,100940.19
2022-12-16T10:57:42.419Z,100994.69
2022-12-16T11:00:29.425Z,100992.94
2022-12-16T11:03:32.401Z,100976.53
2022-12-16T11:06:16.581Z,100999.41
2022-12-16T11:08:59.859Z,101000.38
2022-12-16T11:11:44.819Z,100981.94
2022-12-16T11:15:12.695Z,100991.88
2022-12-16T11:17:54.114Z,101013.75
2022-12-16T11:20:40.850Z,101006.09
2022-12-16T11:23:29.432Z,101014.69
2022-12-16T11:26:24.421Z,100991.19
2022-12-16T11:29:25.701Z,101001.97
2022-12-16T11:32:15.348Z,101011.91
2022-12-16T11:34:59.605Z,100999.84
2022-12-16T11:37:47.399Z,100974.66
2022-12-16T11:40:32.266Z,101006.84
2022-12-16T11:43:17.284Z,101004.22
2022-12-16T11:46:02.564Z,101007.72
2022-12-16T11:48:57.718Z,101023.69
2022-12-16T11:51:42.682Z,100996.91
2022-12-16T11:54:31.939Z,101010.44
2022-12-16T11:57:27.401Z,101013.50
2022-12-16T12:00:16.063Z,101020.78
2022-12-16T12:03:10.253Z,101023.16
2022-12-16T12:06:01.331Z,101025.06
2022-12-16T12:08:52.653Z,101010.47
2022-12-16T12:11:39.671Z,101025.28
2022-12-16T12:14:39.912Z,101027.03
2022-12-16T12:17:34.225Z,101033.34
2022-12-16T12:20:33.774Z,101034.31
2022-12-16T12:23:22.706Z,101037.41
2022-12-16T12:26:24.962Z,101012.22
2022-12-16T12:29:29.588Z,101045.81
2022-12-16T12:32:21.513Z,101038.94
2022-12-16T12:35:11.259Z,101028.59
2022-12-16T12:38:01.518Z,101060.59
2022-12-16T12:41:18.452Z,101063.22
2022-12-16T12:44:09.841Z,101049.84
2022-12-16T12:47:00.223Z,101005.72
2022-12-16T12:49:49.486Z,101043.41
2022-12-16T12:52:45.134Z,101056.25
2022-12-16T12:55:45.234Z,101068.94
2022-12-16T12:58:32.148Z,101069.03
2022-12-16T13:01:17.428Z,101070.66
2022-12-16T13:04:07.370Z,101072.28
2022-12-16T13:06:54.106Z,101069.34
2022-12-16T13:09:46.419Z,101073.81
2022-12-16T13:12:37.851Z,101079.81
2022-12-16T13:15:24.074Z,101053.13
2022-12-16T13:18:28.548Z,101072.59
2022-12-16T13:21:13.339Z,101084.78
2022-12-16T13:23:57.159Z,101069.41
2022-12-16T13:26:41.125Z,101077.78
2022-12-16T13:29:34.481Z,101086.69
2022-12-16T13:32:32.584Z,101038.72
2022-12-16T13:35:20.448Z,101096.28
2022-12-16T13:38:08.179Z,101082.97
2022-12-16T13:41:04.038Z,101088.41
2022-12-16T13:44:04.119Z,101087.56
2022-12-16T13:46:56.070Z,101092.56
2022-12-16T13:49:59.762Z,101090.66
2022-12-16T13:53:00.088Z,101099.22
2022-12-16T13:55:47.453Z,101104.38
2022-12-16T13:58:41.796Z,101102.91
2022-12-16T14:01:32.131Z,101112.19
2022-12-16T14:04:18.396Z,101087.28
2022-12-16T14:07:05.513Z,101116.72
2022-12-16T14:09:50.693Z,101120.19
2022-12-16T14:12:49.556Z,101110.56
2022-12-16T14:15:41.401Z,101111.31
2022-12-16T14:18:43.709Z,101126.19
2022-12-16T14:21:32.137Z,101113.53
2022-12-16T14:24:23.308Z,101128.44
2022-12-16T14:27:06.101Z,101128.81
2022-12-16T14:29:53.061Z,101139.56
2022-12-16T14:32:43.069Z,101145.06
2022-12-16T14:35:31.501Z,101144.47
2022-12-16T14:38:35.950Z,101155.25
2022-12-16T14:41:20.927Z,101151.41
2022-12-16T14:44:03.239Z,101155.56
2022-12-16T14:46:48.930Z,101151.41
2022-12-16T14:49:37.662Z,101145.34
2022-12-16T14:52:31.509Z,101162.66
2022-12-16T14:55:30.649Z,101166.47
2022-12-16T14:58:20.992Z,101154.28
2022-12-16T15:01:04.648Z,101170.22
2022-12-16T15:03:53.619Z,101182.56
2022-12-16T15:06:42.934Z,101180.69
2022-12-16T15:09:34.563Z,101179.16
2022-12-16T15:12:21.491Z,101180.69
2022-12-16T15:15:09.011Z,101178.72
2022-12-16T15:18:00.832Z,101172.66
2022-12-16T15:20:46.773Z,101190.84
2022-12-16T15:23:35.137Z,101201.75
2022-12-16T15:26:21.135Z,101208.38
2022-12-16T15:29:03.393Z,101212.00
2022-12-16T15:31:50.543Z,101215.41
2022-12-16T15:34:39.837Z,101211.13
2022-12-16T15:37:31.505Z,101219.53
2022-12-16T15:40:13.774Z,101225.84
2022-12-16T15:42:56.131Z,101228.34
2022-12-16T15:45:41.560Z,101226.69
2022-12-16T15:48:34.703Z,101214.81
2022-12-16T15:51:36.110Z,101239.88
2022-12-16T15:54:30.797Z,101242.78
2022-12-16T15:57:14.021Z,101223.78
2022-12-16T16:00:11.174Z,101258.25
2022-12-16T16:03:02.130Z,101246.00
2022-12-16T16:05:48.485Z,101264.53
2022-12-16T16:08:32.749Z,101261.72
2022-12-16T16:11:21.301Z,101262.66
2022-12-16T16:14:08.276Z,101259.44
2022-12-16T16:16:55.041Z,101203.00
2022-12-16T16:19:40.482Z,101258.63
2022-12-16T16:22:30.290Z,101275.06
2022-12-16T16:25:12.957Z,101267.63
2022-12-16T16:27:58.873Z,101259.09
2022-12-16T16:30:43.184Z,101275.25
2022-12-16T16:33:28.796Z,101285.00
2022-12-16T16:36:13.131Z,101284.66
2022-12-16T16:39:01.437Z,101286.94
2022-12-16T16:41:43.704Z,101289.47
2022-12-16T16:44:25.932Z,101282.00
2022-12-16T16:47:08.173Z,101295.75
2022-12-16T16:49:56.103Z,101304.66
2022-12-16T16:52:43.295Z,101307.81
2022-12-16T16:55:33.147Z,101302.97
2022-12-16T16:58:15.491Z,101309.41
2022-12-16T17:00:57.808Z,101310.28
2022-12-16T17:03:41.740Z,101320.91
2022-12-16T17:06:30.171Z,101314.91
2022-12-16T17:09:12.382Z,101316.53
2022-12-16T17:11:57.570Z,101323.41
2022-12-16T17:14:39.794Z,101323.06
2022-12-16T17:17:25.230Z,101315.19
2022-12-16T17:20:07.478Z,101320.66
2022-12-16T17:22:50.014Z,101322.19
2022-12-16T17:25:32.799Z,101324.56
2022-12-16T17:28:18.305Z,101313.31
2022-12-16T17:31:00.667Z,101333.56
2022-12-16T17:33:43.096Z,101296.72
2022-12-16T17:36:31.635Z,101338.44
2022-12-16T17:39:21.137Z,101341.69
2022-12-16T17:42:03.468Z,101349.94
2022-12-16T17:44:48.387Z,101346.41
2022-12-16T17:47:34.230Z,101356.69
2022-12-16T17:50:17.963Z,101353.44
2022-12-16T17:53:00.600Z,101356.31
2022-12-16T17:55:44.005Z,101359.69
2022-12-16T17:58:26.274Z,101367.66
2022-12-16T18:01:16.336Z,101374.75
2022-12-16T18:04:01.877Z,101374.38
2022-12-16T18:06:44.141Z,101383.13
2022-12-16T18:09:26.118Z,101367.59
2022-12-16T18:12:13.833Z,101387.44
2022-12-16T18:14:56.122Z,101390.19
2022-12-16T18:17:42.011Z,101389.47
2022-12-16T18:20:24.605Z,101394.53
2022-12-16T18:23:08.057Z,101410.53
2022-12-16T18:25:53.909Z,101350.34
2022-12-16T18:28:36.106Z,101418.19
2022-12-16T18:31:20.562Z,101418.31
2022-12-16T18:34:17.269Z,101410.44
2022-12-16T18:36:59.417Z,101426.50
2022-12-16T18:39:42.613Z,101407.09
2022-12-16T18:42:26.041Z,101427.88
2022-12-16T18:45:08.245Z,101429.16
2022-12-16T18:47:51.490Z,101414.91
2022-12-16T18:50:38.233Z,101434.03
2022-12-16T18:53:21.329Z,101427.22
2022-12-16T18:56:16.193Z,101427.63
2022-12-16T18:58:58.398Z,101438.91
2022-12-16T19:01:40.779Z,101435.31
2022-12-16T19:04:23.165Z,101432.81
2022-12-16T19:10:27.026Z,101433.06
2022-12-16T19:13:15.600Z,101451.78
2022-12-16T19:15:58.946Z,101445.59
2022-12-16T19:18:43.126Z,101462.66
2022-12-16T19:21:26.454Z,101463.94
2022-12-16T19:24:10.708Z,101468.06
2022-12-16T19:26:56.591Z,101470.13
2022-12-16T19:29:40.985Z,101470.63
2022-12-16T19:32:26.928Z,101480.34
2022-12-16T19:35:09.192Z,101465.66
2022-12-16T19:37:52.349Z,101474.34
2022-12-16T19:40:37.063Z,101481.47
2022-12-16T19:43:29.033Z,101476.00
2022-12-16T19:46:11.666Z,101465.75
2022-12-16T19:48:56.151Z,101467.31
2022-12-16T19:51:38.401Z,101481.81
2022-12-16T19:54:20.653Z,101490.84
2022-12-16T19:57:03.638Z,101500.47
2022-12-16T19:59:48.351Z,101505.53
2022-12-16T20:02:30.976Z,101499.06
2022-12-16T20:05:17.846Z,101498.91
2022-12-16T20:08:01.079Z,101507.53
2022-12-16T20:10:45.359Z,101509.59
2022-12-16T20:13:30.075Z,101497.78
2022-12-16T20:16:19.945Z,101521.63
2022-12-16T20:19:04.127Z,101519.38
2022-12-16T20:21:48.927Z,101514.63
2022-12-16T20:24:31.353Z,101502.97
2022-12-16T20:27:16.892Z,101527.78
2022-12-16T20:29:59.111Z,101536.50
2022-12-16T20:32:47.480Z,101530.84
2022-12-16T20:35:32.816Z,101543.31
2022-12-16T20:38:15.168Z,101550.44
2022-12-16T20:40:57.329Z,101547.34
2022-12-16T20:43:39.797Z,101544.38
2022-12-16T20:46:22.245Z,101513.56
2022-12-16T20:49:10.378Z,101553.44
2022-12-16T20:51:52.578Z,101529.06
2022-12-16T20:54:38.452Z,101574.19
2022-12-16T20:57:22.680Z,101575.28
2022-12-16T21:00:05.997Z,101573.78
2022-12-16T21:02:49.398Z,101562.06
2022-12-16T21:05:41.230Z,101574.25
2022-12-16T21:08:23.467Z,101574.59
2022-12-16T21:11:11.741Z,101580.13
2022-12-16T21:13:57.908Z,101587.75
2022-12-16T21:16:44.001Z,101580.38
2022-12-16T21:19:33.590Z,101585.91
2022-12-16T21:22:25.462Z,101570.66
2022-12-16T21:25:08.765Z,101586.31
2022-12-16T21:27:51.980Z,101598.34
2022-12-16T21:30:34.915Z,101578.19
2022-12-16T21:33:19.480Z,101597.63
2022-12-16T21:36:08.349Z,101600.28
2022-12-16T21:38:56.364Z,101608.00
2022-12-16T21:41:41.685Z,101587.53
2022-12-16T21:44:23.926Z,101601.97
2022-12-16T21:47:06.169Z,101618.53
2022-12-16T21:49:49.495Z,101589.97
2022-12-16T21:52:32.684Z,101607.91
2022-12-16T21:55:22.823Z,101605.31
2022-12-16T21:58:10.928Z,101595.03
2022-12-16T22:03:57.600Z,101607.66
2022-12-16T22:06:44.219Z,101603.88
2022-12-16T22:09:29.325Z,101616.16
2022-12-16T22:12:14.201Z,101621.44
2022-12-16T22:14:58.518Z,101626.75
2022-12-16T22:17:40.907Z,101609.03
2022-12-16T22:20:24.416Z,101629.78
2022-12-16T22:23:06.721Z,101642.56
2022-12-16T22:25:50.908Z,101613.69
2022-12-16T22:28:38.096Z,101634.38
2022-12-16T22:31:22.382Z,101630.16
2022-12-16T22:34:07.032Z,101642.22
2022-12-16T22:36:49.319Z,101639.75
2022-12-16T22:39:31.527Z,101635.38
2022-12-16T22:42:13.733Z,101639.28
2022-12-16T22:44:58.334Z,101631.47
2022-12-16T22:47:40.846Z,101641.66
2022-12-16T22:50:23.674Z,101636.41
2022-12-16T22:53:05.912Z,101637.56
2022-12-16T22:55:48.119Z,101635.38
2022-12-16T22:58:30.324Z,101580.59
2022-12-16T23:01:15.123Z,101638.16
2022-12-16T23:03:57.554Z,101641.09
2022-12-16T23:06:40.176Z,101617.56
2022-12-16T23:09:22.343Z,101646.09
2022-12-16T23:12:04.583Z,101649.63
2022-12-16T23:14:46.783Z,101641.59
2022-12-16T23:17:31.537Z,101651.16
2022-12-16T23:20:13.715Z,101651.97
2022-12-16T23:22:55.933Z,101653.84
2022-12-16T23:25:38.449Z,101638.78
2022-12-16T23:28:20.728Z,101655.44
2022-12-16T23:31:07.117Z,101646.50
2022-12-16T23:32:31.389Z,101608.94
2022-12-16T23:33:56.848Z,101612.59
2022-12-16T23:36:39.376Z,101646.59
2022-12-16T23:39:21.642Z,101656.41
2022-12-16T23:42:03.924Z,101648.34
2022-12-16T23:44:48.640Z,101643.53
2022-12-16T23:47:33.181Z,101648.81
2022-12-16T23:50:17.960Z,101649.09
2022-12-16T23:53:00.142Z,101629.97
2022-12-16T23:55:42.361Z,101641.09
2022-12-16T23:58:24.886Z,101657.97
